Time;durP1;ratioP1;P1;durP2;ratioP2;P2;SDS_P1;SDS_P2;PMS_P1;PMS_P2;Temp;Humidity;BMP_temperature;BMP_pressure;BME280_temperature;BME280_humidity;BME280_pressure;Samples;Min_cycle;Max_cycle;Signal;HPM_P1;HPM_P2
2021/04/01 00:02:02;;;;;;;16.10;8.68;;;9.20;99.90;;;;;;4945686;29;20031;-93
2021/04/01 00:04:29;;;;;;;14.77;8.35;;;9.20;99.90;;;;;;4956151;29;20297;-93
2021/04/01 00:06:56;;;;;;;17.50;9.35;;;9.10;99.90;;;;;;4956719;29;20019;-92
2021/04/01 00:09:22;;;;;;;15.38;9.10;;;9.10;99.90;;;;;;4975510;28;20043;-92
2021/04/01 00:11:47;;;;;;;15.63;8.50;;;9.10;99.90;;;;;;4961098;29;20031;-94
2021/04/01 00:14:13;;;;;;;17.73;8.95;;;9.00;99.90;;;;;;4961102;29;20015;-93
2021/04/01 00:16:39;;;;;;;14.48;9.32;;;9.00;99.90;;;;;;4972246;28;20090;-93
2021/04/01 00:19:05;;;;;;;14.70;8.95;;;9.00;99.90;;;;;;4944935;29;20066;-93
2021/04/01 00:21:30;;;;;;;14.20;8.07;;;9.00;99.90;;;;;;4959804;29;20094;-94
2021/04/01 00:23:56;;;;;;;13.90;7.78;;;9.00;99.90;;;;;;4959315;29;20063;-93
2021/04/01 00:26:22;;;;;;;13.93;8.05;;;8.90;99.90;;;;;;4942372;29;20046;-93
2021/04/01 00:28:48;;;;;;;13.52;7.78;;;8.90;99.90;;;;;;4940920;29;20448;-94
2021/04/01 00:31:15;;;;;;;15.18;7.97;;;8.90;99.90;;;;;;4940312;29;20051;-94
2021/04/01 00:33:42;;;;;;;19.85;8.18;;;9.00;99.90;;;;;;4957790;29;20047;-94
2021/04/01 00:36:08;;;;;;;14.13;7.38;;;8.90;99.90;;;;;;4957766;29;20016;-93
2021/04/01 00:38:34;;;;;;;19.02;7.85;;;8.80;99.90;;;;;;4959609;28;20066;-93
2021/04/01 00:41:00;;;;;;;12.32;7.35;;;8.80;99.90;;;;;;4961043;29;20502;-94
2021/04/01 00:43:25;;;;;;;12.73;6.63;;;8.80;99.90;;;;;;4944111;29;20529;-93
2021/04/01 00:45:53;;;;;;;11.50;6.60;;;8.80;99.90;;;;;;4961179;29;20037;-92
2021/04/01 00:48:18;;;;;;;15.52;7.18;;;8.90;99.90;;;;;;4944044;29;20090;-93
2021/04/01 00:50:46;;;;;;;12.98;6.78;;;8.90;99.90;;;;;;4944106;29;20031;-92
2021/04/01 00:53:12;;;;;;;10.23;6.68;;;8.90;99.90;;;;;;4942570;29;20039;-94
2021/04/01 00:55:40;;;;;;;14.27;6.75;;;8.90;99.90;;;;;;4960652;29;20078;-93
2021/04/01 00:58:06;;;;;;;12.98;6.78;;;8.90;99.90;;;;;;4943267;29;20138;-92
2021/04/01 01:00:33;;;;;;;9.05;5.78;;;9.00;99.90;;;;;;4944059;29;20150;-93
2021/04/01 01:03:00;;;;;;;11.52;6.10;;;9.00;99.90;;;;;;4943803;29;20486;-93
2021/04/01 01:05:27;;;;;;;9.48;6.07;;;9.00;99.90;;;;;;4943255;29;20024;-93
2021/04/01 01:07:53;;;;;;;14.30;6.60;;;8.90;99.90;;;;;;4942859;29;20038;-93
2021/04/01 01:10:25;;;;;;;11.10;5.97;;;8.90;99.90;;;;;;4942981;29;20027;-92
2021/04/01 01:12:51;;;;;;;11.32;5.90;;;8.90;99.90;;;;;;4942745;29;20105;-93
2021/04/01 01:15:17;;;;;;;9.57;5.07;;;8.90;99.90;;;;;;4942657;29;20031;-92
2021/04/01 01:17:43;;;;;;;10.57;5.57;;;8.90;99.90;;;;;;4942493;29;20489;-93
2021/04/01 01:20:12;;;;;;;12.77;4.78;;;8.90;99.90;;;;;;4942910;29;20039;-93
2021/04/01 01:22:38;;;;;;;13.00;6.78;;;9.00;99.90;;;;;;4942528;29;20023;-93
2021/04/01 01:25:09;;;;;;;12.27;6.63;;;8.90;99.90;;;;;;4941972;29;20033;-92
2021/04/01 01:27:36;;;;;;;9.48;4.50;;;8.80;99.90;;;;;;4942578;29;20055;-93
2021/04/01 01:30:05;;;;;;;11.73;6.25;;;8.70;99.90;;;;;;4942314;29;20055;-93
2021/04/01 01:32:37;;;;;;;9.95;5.88;;;8.70;99.90;;;;;;4942137;29;20512;-94
2021/04/01 01:35:06;;;;;;;7.47;4.80;;;8.70;99.90;;;;;;4942019;29;20519;-93
2021/04/01 01:37:31;;;;;;;10.80;5.45;;;8.70;99.90;;;;;;4941379;29;20047;-91
2021/04/01 01:39:57;;;;;;;12.55;5.28;;;8.70;99.90;;;;;;4926788;29;20063;-94
2021/04/01 01:42:24;;;;;;;9.93;4.97;;;8.80;99.90;;;;;;4941757;29;20399;-93
2021/04/01 01:44:50;;;;;;;8.90;3.92;;;8.80;99.90;;;;;;4958628;29;20035;-94
2021/04/01 01:47:15;;;;;;;8.57;4.68;;;8.70;99.90;;;;;;4957260;29;20042;-94
2021/04/01 01:49:41;;;;;;;12.40;3.72;;;8.80;99.90;;;;;;4939481;29;20030;-94
2021/04/01 01:52:07;;;;;;;9.23;3.53;;;8.70;99.90;;;;;;4939900;29;20399;-93
2021/04/01 01:54:33;;;;;;;8.13;4.03;;;8.60;99.90;;;;;;4939974;29;20023;-93
2021/04/01 01:56:59;;;;;;;6.60;3.83;;;8.60;99.90;;;;;;4940212;29;20481;-93
2021/04/01 01:59:25;;;;;;;9.75;5.20;;;8.60;99.90;;;;;;4939980;29;20477;-93
2021/04/01 02:01:51;;;;;;;7.45;4.25;;;8.60;99.90;;;;;;4956513;29;20055;-93
2021/04/01 02:04:17;;;;;;;10.90;5.90;;;8.60;99.90;;;;;;4939856;29;20034;-93
2021/04/01 02:06:43;;;;;;;9.07;4.43;;;8.70;99.90;;;;;;4940340;29;20043;-94
2021/04/01 02:09:09;;;;;;;7.28;4.03;;;8.60;99.90;;;;;;4957029;29;20047;-92
2021/04/01 02:11:35;;;;;;;10.00;4.32;;;8.60;99.90;;;;;;4939745;29;20063;-93
2021/04/01 02:14:00;;;;;;;9.23;3.75;;;8.60;99.90;;;;;;4940419;29;20027;-91
2021/04/01 02:16:27;;;;;;;11.00;4.43;;;8.60;99.90;;;;;;4939687;28;20035;-92
2021/04/01 02:18:53;;;;;;;17.48;4.63;;;8.60;99.90;;;;;;4939831;29;20035;-92
2021/04/01 02:21:21;;;;;;;8.98;4.32;;;8.50;99.90;;;;;;4939456;29;20035;-93
2021/04/01 02:23:46;;;;;;;6.70;3.35;;;8.50;99.90;;;;;;4940145;29;20125;-93
2021/04/01 02:26:12;;;;;;;13.23;5.85;;;8.50;99.90;;;;;;4950640;28;20325;-92
2021/04/01 02:28:38;;;;;;;9.85;5.05;;;8.40;99.90;;;;;;4963468;28;20031;-93
2021/04/01 02:31:08;;;;;;;8.90;5.05;;;8.30;99.90;;;;;;4963255;28;20051;-93
2021/04/01 02:33:36;;;;;;;14.15;5.80;;;8.30;99.90;;;;;;4960149;28;20012;-93
2021/04/01 02:36:03;;;;;;;12.77;5.75;;;8.30;99.90;;;;;;4961460;28;20071;-92
2021/04/01 02:38:29;;;;;;;11.13;5.93;;;8.30;99.90;;;;;;4967404;28;20052;-92
2021/04/01 02:40:56;;;;;;;13.00;7.53;;;8.20;99.90;;;;;;4949471;29;20027;-93
2021/04/01 02:45:53;;;;;;;14.45;6.47;;;8.20;99.90;;;;;;4964949;29;20454;-92
2021/04/01 02:48:19;;;;;;;13.30;6.65;;;8.20;99.90;;;;;;4944358;29;20062;-93
2021/04/01 02:50:45;;;;;;;12.52;6.70;;;8.20;99.90;;;;;;4957898;29;20058;-92
2021/04/01 02:53:12;;;;;;;12.88;5.90;;;8.10;99.90;;;;;;4942286;29;20560;-93
2021/04/01 02:55:37;;;;;;;14.18;5.40;;;8.20;99.90;;;;;;4938884;29;20035;-93
2021/04/01 02:58:04;;;;;;;13.73;5.20;;;8.10;99.90;;;;;;4939595;29;20115;-93
2021/04/01 03:00:31;;;;;;;14.43;5.88;;;8.10;99.90;;;;;;4938282;29;20028;-95
2021/04/01 03:03:01;;;;;;;12.20;5.50;;;8.00;99.90;;;;;;4939023;29;20024;-92
2021/04/01 03:05:26;;;;;;;14.57;5.50;;;8.00;99.90;;;;;;4937501;29;20028;-93
2021/04/01 03:07:52;;;;;;;10.18;5.68;;;8.00;99.90;;;;;;4938415;29;20382;-93
2021/04/01 03:10:19;;;;;;;14.52;5.28;;;8.00;99.90;;;;;;4937394;29;20079;-92
2021/04/01 03:12:45;;;;;;;15.10;5.30;;;8.00;99.90;;;;;;4937430;29;20036;-92
2021/04/01 03:15:12;;;;;;;18.10;6.68;;;8.00;99.90;;;;;;4939587;29;20112;-93
2021/04/01 03:17:40;;;;;;;19.80;6.05;;;8.10;99.90;;;;;;4957251;28;20036;-92
2021/04/01 03:20:07;;;;;;;13.13;6.40;;;8.00;99.90;;;;;;4939104;29;20028;-93
2021/04/01 03:22:34;;;;;;;16.30;5.68;;;8.00;99.90;;;;;;4937057;29;20028;-93
2021/04/01 03:24:59;;;;;;;18.27;6.82;;;7.90;99.90;;;;;;4937733;29;20602;-94
2021/04/01 03:27:25;;;;;;;14.45;5.88;;;7.90;99.90;;;;;;4936468;29;20066;-93
2021/04/01 03:30:07;;;;;;;15.85;5.85;;;7.80;99.90;;;;;;4936716;29;20055;-92
2021/04/01 03:32:44;;;;;;;17.17;6.65;;;7.80;99.90;;;;;;4936304;29;20046;-93
2021/04/01 03:35:12;;;;;;;21.00;7.07;;;7.90;99.90;;;;;;4937786;29;20027;-93
2021/04/01 03:37:39;;;;;;;18.05;6.30;;;7.90;99.90;;;;;;4936168;29;20078;-92
2021/04/01 03:40:06;;;;;;;16.55;6.00;;;7.80;99.90;;;;;;4938175;29;20046;-93
2021/04/01 03:42:33;;;;;;;15.57;5.45;;;7.80;99.90;;;;;;4935858;29;20023;-92
2021/04/01 03:44:59;;;;;;;14.93;6.07;;;7.80;99.90;;;;;;4935998;29;20028;-93
2021/04/01 03:47:24;;;;;;;23.92;6.03;;;7.80;99.90;;;;;;4935145;29;20031;-93
2021/04/01 03:49:50;;;;;;;14.80;5.88;;;7.80;99.90;;;;;;4934874;29;20489;-93
2021/04/01 03:52:16;;;;;;;17.52;5.85;;;7.80;99.90;;;;;;4935427;29;20114;-93
2021/04/01 03:54:45;;;;;;;20.95;6.60;;;7.80;99.90;;;;;;4933469;29;20020;-93
2021/04/01 03:57:10;;;;;;;19.58;7.07;;;7.80;99.90;;;;;;4938183;29;20031;-92
2021/04/01 03:59:54;;;;;;;12.45;5.15;;;7.70;99.90;;;;;;4935004;29;20513;-93
2021/04/01 04:02:43;;;;;;;16.90;6.25;;;7.70;99.90;;;;;;4939491;29;20128;-94
2021/04/01 04:08:15;;;;;;;22.20;7.75;;;7.70;99.90;;;;;;4955158;29;20034;-93
2021/04/01 04:10:48;;;;;;;19.23;7.18;;;7.70;99.90;;;;;;4935441;29;20478;-92
2021/04/01 04:13:21;;;;;;;19.40;7.05;;;7.70;99.90;;;;;;4958265;28;20024;-93
2021/04/01 04:15:47;;;;;;;23.92;7.32;;;7.80;99.90;;;;;;4938273;29;20036;-93
2021/04/01 04:18:13;;;;;;;18.33;6.97;;;7.70;99.90;;;;;;4940789;29;20051;-93
2021/04/01 04:20:39;;;;;;;16.52;7.13;;;7.60;99.90;;;;;;4958720;29;20039;-92
2021/04/01 04:23:06;;;;;;;22.83;7.43;;;7.60;99.90;;;;;;4940354;29;20031;-94
2021/04/01 04:25:33;;;;;;;21.67;7.25;;;7.60;99.90;;;;;;4937990;29;20425;-93
2021/04/01 04:28:09;;;;;;;14.95;5.55;;;7.60;99.90;;;;;;4939552;29;20151;-93
2021/04/01 04:30:34;;;;;;;22.52;6.90;;;7.70;99.90;;;;;;4937719;29;20533;-93
2021/04/01 04:33:01;;;;;;;18.67;5.95;;;7.60;99.90;;;;;;4939670;29;20032;-93
2021/04/01 04:35:26;;;;;;;21.27;6.32;;;7.60;99.90;;;;;;4939617;29;20027;-93
2021/04/01 04:37:52;;;;;;;25.33;6.53;;;7.60;99.90;;;;;;4956311;29;20095;-94
2021/04/01 04:40:18;;;;;;;24.73;8.07;;;7.50;99.90;;;;;;4940203;29;20032;-92
2021/04/01 04:42:43;;;;;;;19.73;5.68;;;7.50;99.90;;;;;;4937601;29;20059;-93
2021/04/01 04:45:10;;;;;;;17.83;6.07;;;7.40;99.90;;;;;;4956959;29;20068;-94
2021/04/01 04:47:36;;;;;;;17.60;5.25;;;7.30;99.90;;;;;;4939030;29;20028;-91
2021/04/01 04:50:03;;;;;;;20.25;4.85;;;7.30;99.90;;;;;;4941983;29;20035;-93
2021/04/01 04:52:31;;;;;;;20.48;4.68;;;7.30;99.90;;;;;;4940338;29;20047;-92
2021/04/01 04:54:57;;;;;;;21.35;5.07;;;7.30;99.90;;;;;;4940814;29;20485;-93
2021/04/01 04:57:44;;;;;;;16.67;4.57;;;7.30;99.90;;;;;;4960226;29;20062;-93
2021/04/01 05:05:39;;;;;;;17.85;4.30;;;7.20;99.90;;;;;;4959028;29;20118;-93
2021/04/01 05:08:05;;;;;;;13.77;4.88;;;7.20;99.90;;;;;;4940937;29;20475;-93
2021/04/01 05:10:30;;;;;;;17.40;4.50;;;7.20;99.90;;;;;;4938577;29;20040;-93
2021/04/01 05:13:17;;;;;;;17.40;4.75;;;7.20;99.90;;;;;;4939522;29;20035;-94
2021/04/01 05:15:47;;;;;;;14.65;4.63;;;7.10;99.90;;;;;;4958253;29;20058;-94
2021/04/01 05:18:22;;;;;;;12.77;3.97;;;7.10;99.90;;;;;;4942450;29;20129;-93
2021/04/01 05:20:49;;;;;;;8.50;3.60;;;7.10;99.90;;;;;;4941893;29;20028;-94
2021/04/01 05:26:33;;;;;;;13.20;3.25;;;7.10;99.90;;;;;;4960019;29;20019;-93
2021/04/01 05:28:52;;;;;;;9.30;4.25;;;7.00;99.90;;;;;;4960142;29;20397;-94
2021/04/01 05:31:21;;;;;;;10.95;3.20;;;6.90;99.90;;;;;;4942740;29;20079;-93
2021/04/01 05:33:48;;;;;;;13.88;4.00;;;6.90;99.90;;;;;;4941471;29;20416;-93
2021/04/01 05:36:24;;;;;;;6.53;3.20;;;6.90;99.90;;;;;;4941993;29;20199;-93
2021/04/01 05:38:52;;;;;;;10.48;3.20;;;6.90;99.90;;;;;;4964872;29;20043;-93
2021/04/01 05:41:19;;;;;;;9.75;4.00;;;6.80;99.90;;;;;;4964977;29;20485;-93
2021/04/01 05:43:50;;;;;;;16.63;3.65;;;6.80;99.90;;;;;;4943666;29;20027;-94
2021/04/01 05:46:29;;;;;;;10.95;3.08;;;6.80;99.90;;;;;;4942315;29;20280;-93
2021/04/01 06:00:19;;;;;;;13.40;3.78;;;6.80;99.90;;;;;;4955336;29;20046;-94
2021/04/01 06:02:58;;;;;;;12.95;3.25;;;6.80;99.90;;;;;;4952717;29;20036;-93
2021/04/01 06:05:29;;;;;;;9.55;2.90;;;6.90;99.90;;;;;;4940272;29;20039;-94
2021/04/01 06:08:08;;;;;;;8.95;2.92;;;6.90;99.90;;;;;;4969522;28;20031;-94
2021/04/01 06:10:36;;;;;;;10.70;2.92;;;6.80;99.90;;;;;;4960053;28;20063;-94
2021/04/01 06:13:08;;;;;;;7.07;3.05;;;6.80;99.90;;;;;;4961815;28;20012;-93
2021/04/01 06:15:38;;;;;;;10.30;3.78;;;6.80;99.90;;;;;;4957419;28;20023;-94
2021/04/01 06:18:12;;;;;;;9.88;2.85;;;6.90;99.90;;;;;;4961445;28;20115;-93
2021/04/01 06:20:45;;;;;;;9.95;3.72;;;6.90;99.90;;;;;;4945429;29;20019;-93
2021/04/01 06:23:31;;;;;;;9.23;3.13;;;6.90;99.90;;;;;;4944189;29;20531;-93
2021/04/01 06:25:58;;;;;;;10.77;3.17;;;6.90;99.90;;;;;;4959374;29;20020;-93
2021/04/01 06:28:32;;;;;;;10.52;3.10;;;6.90;99.90;;;;;;4946982;29;20042;-94
2021/04/01 06:30:59;;;;;;;8.57;3.83;;;6.90;99.90;;;;;;4944258;29;20055;-93
2021/04/01 06:33:26;;;;;;;9.18;3.40;;;6.90;99.90;;;;;;4944795;29;20031;-94
2021/04/01 06:35:58;;;;;;;10.93;3.42;;;6.80;99.90;;;;;;4941821;29;20130;-94
2021/04/01 06:38:25;;;;;;;8.45;2.80;;;6.80;99.90;;;;;;4943090;29;20047;-94
2021/04/01 06:40:53;;;;;;;7.85;3.78;;;6.90;99.90;;;;;;4927331;29;20028;-95
2021/04/01 06:43:21;;;;;;;7.53;3.50;;;6.90;99.90;;;;;;4922406;29;20031;-94
2021/04/01 06:46:00;;;;;;;8.77;3.80;;;6.80;99.90;;;;;;4936247;29;20074;-95
2021/04/01 06:51:16;;;;;;;13.95;4.70;;;6.70;99.90;;;;;;4959823;29;20377;-94
2021/04/01 06:54:21;;;;;;;16.80;4.40;;;6.70;99.90;;;;;;4955325;29;20042;-94
2021/04/01 06:56:53;;;;;;;10.10;4.00;;;6.60;99.90;;;;;;4960398;29;20098;-94
2021/04/01 07:00:12;;;;;;;15.02;4.28;;;6.60;99.90;;;;;;4942484;29;20036;-95
2021/04/01 07:04:50;;;;;;;13.75;5.82;;;6.60;99.90;;;;;;4956569;28;20042;-94
2021/04/01 07:07:19;;;;;;;14.93;4.68;;;6.50;99.90;;;;;;4959039;29;20015;-94
2021/04/01 07:12:27;;;;;;;13.35;4.68;;;6.40;99.90;;;;;;4972703;29;20038;-93
2021/04/01 07:15:02;;;;;;;10.57;4.00;;;6.30;99.90;;;;;;4971608;29;20028;-94
2021/04/01 07:17:39;;;;;;;8.10;3.97;;;6.30;99.90;;;;;;4939316;29;20060;-94
2021/04/01 07:31:39;;;;;;;6.88;2.70;;;6.30;99.90;;;;;;4977359;28;20058;-95
2021/04/01 07:45:28;;;;;;;5.35;2.50;;;6.40;99.90;;;;;;4972524;29;20030;-93
2021/04/01 07:48:03;;;;;;;8.55;2.97;;;6.50;99.90;;;;;;4970937;28;20086;-93
2021/04/01 07:50:46;;;;;;;8.40;2.63;;;6.60;99.90;;;;;;4955140;29;20023;-94
2021/04/01 07:53:19;;;;;;;5.43;2.30;;;6.60;99.90;;;;;;4952832;29;20054;-92
2021/04/01 07:56:06;;;;;;;7.90;2.58;;;6.60;99.90;;;;;;4943139;29;20050;-94
2021/04/01 08:04:07;;;;;;;5.57;3.10;;;6.80;99.90;;;;;;4969830;29;20034;-94
2021/04/01 08:06:35;;;;;;;5.30;2.30;;;6.70;99.90;;;;;;4956622;28;20026;-94
2021/04/01 08:09:07;;;;;;;11.27;2.45;;;6.80;99.90;;;;;;4955239;29;20019;-95
2021/04/01 08:11:47;;;;;;;3.17;1.67;;;6.70;99.90;;;;;;4957718;29;20035;-94
2021/04/01 08:14:27;;;;;;;4.82;2.20;;;6.70;99.90;;;;;;4948380;29;20012;-95
2021/04/01 08:17:12;;;;;;;2.42;1.60;;;6.70;99.90;;;;;;4950545;29;20028;-94
2021/04/01 08:20:36;;;;;;;5.20;1.92;;;6.70;99.90;;;;;;4968468;29;20043;-95
2021/04/01 08:23:44;;;;;;;5.88;1.92;;;6.70;99.90;;;;;;4944906;29;20035;-96
2021/04/01 08:26:37;;;;;;;4.63;1.55;;;6.80;99.90;;;;;;4951438;28;20027;-94
2021/04/01 08:32:43;;;;;;;3.78;2.05;;;6.90;99.90;;;;;;4960636;29;20079;-93
2021/04/01 08:35:06;;;;;;;4.38;2.17;;;6.80;99.90;;;;;;4963796;29;20392;-94
2021/04/01 08:37:37;;;;;;;5.95;2.55;;;6.80;99.90;;;;;;4946512;29;20043;-93
2021/04/01 08:40:03;;;;;;;7.32;2.60;;;6.70;99.90;;;;;;4948516;28;20086;-94
2021/04/01 08:42:54;;;;;;;7.43;2.58;;;6.70;99.90;;;;;;4949931;28;20066;-95
2021/04/01 08:48:43;;;;;;;2.80;1.88;;;6.60;99.90;;;;;;4968350;28;19922;-92
2021/04/01 08:51:39;;;;;;;2.85;2.00;;;6.60;99.90;;;;;;4909646;29;20029;-92
2021/04/01 08:54:14;;;;;;;2.58;2.00;;;6.70;99.90;;;;;;4892605;29;20028;-92
2021/04/01 08:57:02;;;;;;;4.32;2.20;;;6.70;99.90;;;;;;4892926;29;20041;-94
2021/04/01 08:59:53;;;;;;;3.13;1.73;;;6.80;99.90;;;;;;4900048;29;20065;-94
2021/04/01 09:02:27;;;;;;;3.20;2.03;;;6.80;99.90;;;;;;4910869;29;20028;-94
2021/04/01 09:04:56;;;;;;;4.32;1.83;;;6.80;99.90;;;;;;4897318;29;20061;-93
2021/04/01 09:07:26;;;;;;;4.20;2.00;;;6.90;99.90;;;;;;4898919;29;20093;-91
2021/04/01 09:09:59;;;;;;;8.60;2.45;;;7.00;99.90;;;;;;4912948;29;20037;-92
2021/04/01 09:12:39;;;;;;;9.63;2.67;;;7.10;99.90;;;;;;4907907;29;20028;-92
2021/04/01 09:15:22;;;;;;;9.20;3.20;;;7.10;99.90;;;;;;4909044;29;20080;-93
2021/04/01 09:17:48;;;;;;;5.47;2.45;;;7.20;99.90;;;;;;4893819;29;20032;-93
2021/04/01 09:20:18;;;;;;;3.40;2.30;;;7.20;99.90;;;;;;4892138;29;20116;-90
2021/04/01 09:23:08;;;;;;;4.88;2.30;;;7.30;99.90;;;;;;4891076;29;20036;-94
2021/04/01 09:25:39;;;;;;;5.50;2.38;;;7.20;99.90;;;;;;4878982;29;20033;-93
2021/04/01 09:28:07;;;;;;;6.30;2.10;;;7.20;99.90;;;;;;4927923;29;20494;-91
2021/04/01 09:30:34;;;;;;;9.13;2.60;;;7.20;99.90;;;;;;4939807;29;20043;-92
2021/04/01 09:33:36;;;;;;;5.72;2.78;;;7.30;99.90;;;;;;4948218;29;20019;-92
2021/04/01 09:36:18;;;;;;;6.28;2.92;;;7.30;99.90;;;;;;4983133;28;20015;-92
2021/04/01 09:38:52;;;;;;;6.60;2.20;;;7.30;99.90;;;;;;4954301;29;20043;-92
2021/04/01 09:41:33;;;;;;;8.13;2.42;;;7.30;99.90;;;;;;4949434;29;20023;-93
2021/04/01 09:44:06;;;;;;;8.10;2.28;;;7.40;99.90;;;;;;4935826;29;20035;-93
2021/04/01 09:46:35;;;;;;;10.65;2.10;;;7.40;99.90;;;;;;4932352;29;20063;-93
2021/04/01 09:49:04;;;;;;;2.92;1.80;;;7.50;99.90;;;;;;4934091;29;20103;-93
2021/04/01 09:51:32;;;;;;;8.82;2.05;;;7.50;99.90;;;;;;4932347;29;20039;-93
2021/04/01 09:53:59;;;;;;;10.43;2.67;;;7.50;99.90;;;;;;4934995;29;20150;-93
2021/04/01 09:56:33;;;;;;;9.52;2.28;;;7.50;99.90;;;;;;4934490;29;20114;-93
2021/04/01 09:58:59;;;;;;;5.57;2.17;;;7.50;99.90;;;;;;4931622;29;20042;-93
2021/04/01 10:01:33;;;;;;;5.78;2.50;;;7.60;99.90;;;;;;4935359;29;20043;-93
2021/04/01 10:03:59;;;;;;;8.60;2.03;;;7.70;99.90;;;;;;4934652;29;20578;-94
2021/04/01 10:06:51;;;;;;;12.23;2.28;;;7.70;99.90;;;;;;4935030;29;20063;-92
2021/04/01 10:09:27;;;;;;;5.97;2.38;;;7.70;99.90;;;;;;4934199;28;20114;-92
2021/04/01 10:12:07;;;;;;;7.30;3.30;;;7.80;99.90;;;;;;4933098;29;20020;-93
2021/04/01 10:14:33;;;;;;;10.57;2.58;;;7.80;99.90;;;;;;4934050;29;20065;-92
2021/04/01 10:17:00;;;;;;;8.00;2.80;;;7.80;99.90;;;;;;4933981;29;20020;-94
2021/04/01 10:19:32;;;;;;;14.05;3.13;;;7.80;99.90;;;;;;4934099;29;20031;-92
2021/04/01 10:21:58;;;;;;;9.38;2.88;;;7.80;99.90;;;;;;4932656;29;20035;-94
2021/04/01 10:24:34;;;;;;;11.57;2.40;;;7.80;99.90;;;;;;4930689;29;20027;-92
2021/04/01 10:27:12;;;;;;;8.02;2.92;;;7.70;99.90;;;;;;4934388;29;20024;-93
2021/04/01 10:32:30;;;;;;;13.48;3.03;;;7.60;99.90;;;;;;4948976;29;20059;-94
2021/04/01 10:35:02;;;;;;;11.20;3.15;;;7.50;99.90;;;;;;4932604;29;20086;-94
2021/04/01 10:37:31;;;;;;;12.25;3.33;;;7.50;99.90;;;;;;4931615;29;20031;-91
2021/04/01 10:40:07;;;;;;;13.07;3.20;;;7.50;99.90;;;;;;4930893;29;20025;-92
2021/04/01 10:42:34;;;;;;;11.23;3.30;;;7.50;99.90;;;;;;4930199;29;20062;-92
2021/04/01 10:45:07;;;;;;;14.75;3.80;;;7.50;99.90;;;;;;4948719;29;20035;-92
2021/04/01 10:47:53;;;;;;;19.80;3.83;;;7.60;99.90;;;;;;4931161;29;20027;-91
2021/04/01 10:50:20;;;;;;;11.82;3.38;;;7.70;99.90;;;;;;4931400;29;20438;-93
2021/04/01 10:52:46;;;;;;;8.75;2.88;;;7.80;99.90;;;;;;4928438;29;20032;-93
2021/04/01 10:55:12;;;;;;;11.98;3.15;;;7.80;99.90;;;;;;4930273;29;20090;-93
2021/04/01 10:57:40;;;;;;;13.05;3.53;;;7.70;99.90;;;;;;4933318;29;20027;-93
2021/04/01 11:00:13;;;;;;;9.00;3.40;;;7.70;99.90;;;;;;4929957;29;20028;-91
2021/04/01 11:02:43;;;;;;;11.63;4.00;;;7.70;99.90;;;;;;4963769;28;20027;-92
2021/04/01 11:05:15;;;;;;;16.75;3.38;;;7.70;99.90;;;;;;4930285;29;20027;-93
2021/04/01 11:07:47;;;;;;;9.63;3.58;;;7.70;99.90;;;;;;4936617;29;20123;-93
2021/04/01 11:10:28;;;;;;;14.40;4.28;;;7.70;99.90;;;;;;4948773;29;20012;-92
2021/04/01 11:12:58;;;;;;;14.02;3.67;;;7.70;99.90;;;;;;4948225;29;20039;-93
2021/04/01 11:15:26;;;;;;;13.40;3.10;;;7.80;99.90;;;;;;4970242;28;20091;-93
2021/04/01 11:18:15;;;;;;;13.63;2.70;;;7.80;99.90;;;;;;4962312;28;20039;-94
2021/04/01 11:20:43;;;;;;;10.25;3.33;;;7.90;99.90;;;;;;4960302;28;20046;-94
2021/04/01 11:23:17;;;;;;;10.73;2.95;;;8.00;99.90;;;;;;4961281;28;20031;-94
2021/04/01 11:25:51;;;;;;;12.68;4.47;;;7.90;99.90;;;;;;4967509;29;20031;-93
2021/04/01 11:28:18;;;;;;;8.27;3.22;;;7.90;99.90;;;;;;4963484;29;20033;-93
2021/04/01 11:30:52;;;;;;;10.50;2.78;;;7.90;99.90;;;;;;4943419;29;20038;-92
2021/04/01 11:33:20;;;;;;;12.07;2.90;;;8.00;99.90;;;;;;4944394;29;20035;-91
2021/04/01 11:35:49;;;;;;;11.18;2.80;;;8.00;99.90;;;;;;4942839;29;20023;-92
2021/04/01 11:38:21;;;;;;;7.55;2.58;;;8.10;99.90;;;;;;4960892;29;20039;-92
2021/04/01 11:41:04;;;;;;;13.32;2.25;;;8.10;99.90;;;;;;4941287;29;20135;-92
2021/04/01 11:43:32;;;;;;;10.75;2.60;;;8.10;99.90;;;;;;4940967;29;20032;-92
2021/04/01 11:46:10;;;;;;;13.52;2.10;;;8.10;99.90;;;;;;4940662;29;20380;-92
2021/04/01 11:48:38;;;;;;;10.73;2.45;;;8.10;99.90;;;;;;4941058;29;20038;-92
2021/04/01 11:51:07;;;;;;;9.00;2.47;;;8.10;99.90;;;;;;4924650;29;20059;-92
2021/04/01 11:53:32;;;;;;;12.23;2.63;;;8.10;99.90;;;;;;4940744;29;20055;-92
2021/04/01 11:55:59;;;;;;;13.75;3.42;;;8.00;99.90;;;;;;4957106;29;20052;-91
2021/04/01 11:58:31;;;;;;;8.80;2.97;;;8.10;99.90;;;;;;4939696;29;20035;-91
2021/04/01 12:01:11;;;;;;;9.20;3.00;;;8.10;99.90;;;;;;4925332;29;20039;-91
2021/04/01 12:06:04;;;;;;;10.55;2.70;;;8.10;99.90;;;;;;4958172;29;20069;-92
2021/04/01 12:08:30;;;;;;;15.23;3.75;;;8.20;99.90;;;;;;4941351;29;20035;-92
2021/04/01 12:10:57;;;;;;;9.43;3.65;;;8.20;99.90;;;;;;4939696;29;20101;-93
2021/04/01 12:13:26;;;;;;;55.47;49.65;;;8.30;99.90;;;;;;4961344;29;20031;-93
2021/04/01 12:15:52;;;;;;;14.35;7.05;;;8.30;99.90;;;;;;4958270;28;20074;-93
2021/04/01 12:18:19;;;;;;;11.13;3.22;;;8.30;99.90;;;;;;4958007;29;20040;-92
2021/04/01 12:20:46;;;;;;;14.52;3.55;;;8.40;99.90;;;;;;4942561;29;20019;-94
2021/04/01 12:23:20;;;;;;;12.55;3.55;;;8.30;99.90;;;;;;4958871;29;20035;-92
2021/04/01 12:25:46;;;;;;;12.13;3.45;;;8.30;99.90;;;;;;4931264;29;20382;-95
2021/04/01 12:28:21;;;;;;;18.52;3.30;;;8.30;99.90;;;;;;4947777;29;20027;-94
2021/04/01 12:30:50;;;;;;;16.15;3.60;;;8.30;99.90;;;;;;4936470;29;20040;-93
2021/04/01 12:33:23;;;;;;;15.00;4.20;;;8.30;99.90;;;;;;4926754;29;20035;-92
2021/04/01 12:35:55;;;;;;;15.05;4.68;;;8.30;99.90;;;;;;4939801;29;20034;-94
2021/04/01 12:38:31;;;;;;;27.92;4.88;;;8.40;99.90;;;;;;4922337;29;20051;-94
2021/04/01 12:40:59;;;;;;;15.85;4.32;;;8.40;99.90;;;;;;4925891;29;20032;-94
2021/04/01 12:43:40;;;;;;;10.85;3.28;;;8.50;99.90;;;;;;4944150;29;20119;-94
2021/04/01 12:46:07;;;;;;;13.32;3.45;;;8.40;99.90;;;;;;4926379;29;20062;-93
2021/04/01 12:48:50;;;;;;;17.90;3.30;;;8.40;99.90;;;;;;4928484;29;20032;-93
2021/04/01 12:51:23;;;;;;;19.70;2.85;;;8.30;99.90;;;;;;4935982;28;20015;-93
2021/04/01 12:54:04;;;;;;;11.82;2.58;;;8.30;99.90;;;;;;4946820;28;20020;-94
2021/04/01 12:56:39;;;;;;;17.55;2.90;;;8.30;99.90;;;;;;4932827;29;20050;-94
2021/04/01 13:02:25;;;;;;;9.95;2.28;;;8.20;99.90;;;;;;4846231;29;20048;-96
2021/04/01 13:04:57;;;;;;;11.50;2.65;;;8.20;99.90;;;;;;4849362;29;20034;-94
2021/04/01 13:07:27;;;;;;;14.90;2.75;;;8.10;99.90;;;;;;4840705;29;20086;-95
2021/04/01 13:12:34;;;;;;;22.15;3.20;;;8.10;99.90;;;;;;4838000;29;20030;-95
2021/04/01 13:15:00;;;;;;;10.38;2.85;;;8.10;99.90;;;;;;4837319;29;20038;-94
2021/04/01 13:17:28;;;;;;;13.23;2.80;;;8.10;99.90;;;;;;4831071;29;20042;-93
2021/04/01 13:19:57;;;;;;;9.27;2.85;;;8.20;99.90;;;;;;4831718;29;20121;-94
2021/04/01 13:22:30;;;;;;;12.35;2.85;;;8.20;99.90;;;;;;4838413;29;20026;-93
2021/04/01 13:27:26;;;;;;;15.27;2.90;;;8.30;99.90;;;;;;4840569;29;20034;-93
2021/04/01 13:29:57;;;;;;;8.07;2.60;;;8.40;99.90;;;;;;4841448;29;20033;-95
2021/04/01 13:32:38;;;;;;;13.25;2.70;;;8.40;99.90;;;;;;4845625;29;20048;-94
2021/04/01 13:35:20;;;;;;;;;;;8.40;99.90;;;;;;4859756;29;20049;-94
2021/04/01 13:37:57;;;;;;;11.55;2.80;;;8.40;99.90;;;;;;4863973;29;19916;-93
2021/04/01 13:40:24;;;;;;;8.25;2.90;;;8.40;99.90;;;;;;4927828;29;20015;-94
2021/04/01 13:42:55;;;;;;;13.60;2.92;;;8.40;99.90;;;;;;4930279;29;20028;-94
2021/04/01 13:45:24;;;;;;;9.52;2.25;;;8.50;99.90;;;;;;4926902;29;20028;-94
2021/04/01 13:47:57;;;;;;;13.93;2.42;;;8.60;99.90;;;;;;4925432;29;20055;-93
2021/04/01 13:50:28;;;;;;;10.68;2.15;;;8.60;99.90;;;;;;4953563;29;20051;-94
2021/04/01 13:55:25;;;;;;;9.20;2.40;;;8.70;99.90;;;;;;4956044;29;20051;-94
2021/04/01 14:09:34;;;;;;;13.85;2.55;;;8.90;99.00;;;;;;4952430;29;20038;-94
2021/04/01 14:12:06;;;;;;;8.93;2.33;;;8.90;99.00;;;;;;4930389;29;20024;-95
2021/04/01 14:14:38;;;;;;;8.73;2.78;;;9.00;99.00;;;;;;4930293;29;20056;-96
2021/04/01 14:17:05;;;;;;;8.88;3.20;;;9.00;98.80;;;;;;4929428;29;20028;-94
2021/04/01 14:19:31;;;;;;;9.38;2.50;;;9.10;98.60;;;;;;4925883;29;20028;-94
2021/04/01 14:22:00;;;;;;;11.93;3.33;;;9.10;98.40;;;;;;4926050;29;20179;-95
2021/04/01 14:24:35;;;;;;;10.07;3.15;;;9.20;98.10;;;;;;4927527;29;20017;-94
2021/04/01 14:27:26;;;;;;;10.25;3.20;;;9.30;98.00;;;;;;4943914;29;20028;-93
2021/04/01 14:29:56;;;;;;;6.68;2.30;;;9.30;97.60;;;;;;4928292;29;20038;-94
2021/04/01 14:32:27;;;;;;;10.68;2.90;;;9.30;97.30;;;;;;4934029;29;20112;-94
2021/04/01 14:34:57;;;;;;;;;;;9.40;97.20;;;;;;4930534;29;20074;-94
2021/04/01 14:37:36;;;;;;;10.05;2.53;;;9.40;96.80;;;;;;4944167;29;19953;-94
2021/04/01 14:40:26;;;;;;;12.38;3.67;;;9.50;96.40;;;;;;4944735;29;20036;-94
2021/04/01 14:42:55;;;;;;;9.65;2.80;;;9.50;96.20;;;;;;4941183;29;20019;-94
2021/04/01 14:45:20;;;;;;;10.30;3.67;;;9.60;95.90;;;;;;4942190;29;20027;-95
2021/04/01 14:47:46;;;;;;;10.60;2.70;;;9.60;95.40;;;;;;4941658;29;20043;-94